sensor_id;sensor_type;location;lat;lon;timestamp;P1;durP1;ratioP1;P2;durP2;ratioP2
74630;SDS011;63138;55.082;38.804;2023-05-16T00:02:24;11.90;;;5.88;;
74630;SDS011;63138;55.082;38.804;2023-05-16T00:04:50;9.80;;;4.90;;
74630;SDS011;63138;55.082;38.804;2023-05-16T00:07:35;7.38;;;3.47;;
74630;SDS011;63138;55.082;38.804;2023-05-16T00:10:01;5.32;;;2.70;;
74630;SDS011;63138;55.082;38.804;2023-05-16T00:12:30;6.65;;;3.20;;
74630;SDS011;63138;55.082;38.804;2023-05-16T00:14:57;11.00;;;3.27;;
74630;SDS011;63138;55.082;38.804;2023-05-16T00:17:23;4.72;;;2.70;;
74630;SDS011;63138;55.082;38.804;2023-05-16T00:19:53;4.45;;;2.50;;
74630;SDS011;63138;55.082;38.804;2023-05-16T00:22:25;6.40;;;3.58;;
74630;SDS011;63138;55.082;38.804;2023-05-16T00:24:52;5.13;;;3.50;;
74630;SDS011;63138;55.082;38.804;2023-05-16T00:27:18;5.80;;;3.20;;
74630;SDS011;63138;55.082;38.804;2023-05-16T00:29:44;7.43;;;3.50;;
74630;SDS011;63138;55.082;38.804;2023-05-16T00:32:10;8.15;;;3.90;;
74630;SDS011;63138;55.082;38.804;2023-05-16T00:34:35;6.77;;;3.90;;
74630;SDS011;63138;55.082;38.804;2023-05-16T00:37:02;6.93;;;3.73;;
74630;SDS011;63138;55.082;38.804;2023-05-16T00:39:29;7.60;;;3.03;;
74630;SDS011;63138;55.082;38.804;2023-05-16T00:41:55;5.85;;;3.42;;
74630;SDS011;63138;55.082;38.804;2023-05-16T00:44:22;5.35;;;3.35;;
74630;SDS011;63138;55.082;38.804;2023-05-16T00:46:48;4.40;;;3.08;;
74630;SDS011;63138;55.082;38.804;2023-05-16T00:49:14;5.20;;;3.13;;
74630;SDS011;63138;55.082;38.804;2023-05-16T00:51:41;6.03;;;2.80;;
74630;SDS011;63138;55.082;38.804;2023-05-16T00:54:07;9.40;;;3.13;;
74630;SDS011;63138;55.082;38.804;2023-05-16T00:56:33;9.65;;;3.70;;
74630;SDS011;63138;55.082;38.804;2023-05-16T00:58:59;5.50;;;3.23;;
74630;SDS011;63138;55.082;38.804;2023-05-16T01:01:25;7.25;;;3.90;;
74630;SDS011;63138;55.082;38.804;2023-05-16T01:03:53;6.47;;;2.97;;
74630;SDS011;63138;55.082;38.804;2023-05-16T01:06:19;4.63;;;2.90;;
74630;SDS011;63138;55.082;38.804;2023-05-16T01:08:45;8.63;;;4.03;;
74630;SDS011;63138;55.082;38.804;2023-05-16T01:11:26;7.30;;;2.77;;
74630;SDS011;63138;55.082;38.804;2023-05-16T01:16:53;8.98;;;3.53;;
74630;SDS011;63138;55.082;38.804;2023-05-16T01:22:29;9.30;;;3.67;;
74630;SDS011;63138;55.082;38.804;2023-05-16T01:28:03;14.15;;;3.40;;
74630;SDS011;63138;55.082;38.804;2023-05-16T01:30:34;8.48;;;3.72;;
74630;SDS011;63138;55.082;38.804;2023-05-16T01:33:03;9.35;;;3.95;;
74630;SDS011;63138;55.082;38.804;2023-05-16T01:35:29;9.65;;;3.95;;
74630;SDS011;63138;55.082;38.804;2023-05-16T01:43:55;7.57;;;3.50;;
74630;SDS011;63138;55.082;38.804;2023-05-16T01:46:25;9.70;;;3.72;;
74630;SDS011;63138;55.082;38.804;2023-05-16T01:48:57;7.97;;;4.70;;
74630;SDS011;63138;55.082;38.804;2023-05-16T01:51:44;12.13;;;6.53;;
74630;SDS011;63138;55.082;38.804;2023-05-16T01:54:15;19.02;;;9.52;;
74630;SDS011;63138;55.082;38.804;2023-05-16T01:56:45;14.23;;;6.47;;
74630;SDS011;63138;55.082;38.804;2023-05-16T01:59:25;16.88;;;5.40;;
74630;SDS011;63138;55.082;38.804;2023-05-16T02:01:53;10.98;;;5.00;;
74630;SDS011;63138;55.082;38.804;2023-05-16T02:04:21;7.67;;;4.07;;
74630;SDS011;63138;55.082;38.804;2023-05-16T02:06:49;7.28;;;3.92;;
74630;SDS011;63138;55.082;38.804;2023-05-16T02:09:16;7.85;;;3.95;;
74630;SDS011;63138;55.082;38.804;2023-05-16T02:11:42;11.48;;;4.57;;
74630;SDS011;63138;55.082;38.804;2023-05-16T02:14:09;7.53;;;4.10;;
74630;SDS011;63138;55.082;38.804;2023-05-16T02:16:36;4.93;;;3.63;;
74630;SDS011;63138;55.082;38.804;2023-05-16T02:19:02;6.85;;;3.88;;
74630;SDS011;63138;55.082;38.804;2023-05-16T02:21:47;9.23;;;4.13;;
74630;SDS011;63138;55.082;38.804;2023-05-16T02:24:15;13.18;;;4.93;;
74630;SDS011;63138;55.082;38.804;2023-05-16T02:26:40;6.40;;;4.03;;
74630;SDS011;63138;55.082;38.804;2023-05-16T02:29:07;7.57;;;4.57;;
74630;SDS011;63138;55.082;38.804;2023-05-16T02:31:32;12.88;;;4.30;;
74630;SDS011;63138;55.082;38.804;2023-05-16T02:34:01;6.57;;;3.55;;
74630;SDS011;63138;55.082;38.804;2023-05-16T02:36:28;5.70;;;3.70;;
74630;SDS011;63138;55.082;38.804;2023-05-16T02:38:53;8.30;;;4.13;;
74630;SDS011;63138;55.082;38.804;2023-05-16T02:41:21;6.32;;;3.90;;
74630;SDS011;63138;55.082;38.804;2023-05-16T02:43:48;7.47;;;4.05;;
74630;SDS011;63138;55.082;38.804;2023-05-16T02:46:24;6.72;;;3.88;;
74630;SDS011;63138;55.082;38.804;2023-05-16T02:48:57;8.33;;;3.80;;
74630;SDS011;63138;55.082;38.804;2023-05-16T02:51:24;5.30;;;3.67;;
74630;SDS011;63138;55.082;38.804;2023-05-16T02:53:51;8.23;;;3.90;;
74630;SDS011;63138;55.082;38.804;2023-05-16T02:56:19;6.80;;;4.15;;
74630;SDS011;63138;55.082;38.804;2023-05-16T02:58:47;6.10;;;3.80;;
74630;SDS011;63138;55.082;38.804;2023-05-16T03:01:14;5.13;;;3.07;;
74630;SDS011;63138;55.082;38.804;2023-05-16T03:03:42;7.75;;;3.10;;
74630;SDS011;63138;55.082;38.804;2023-05-16T03:06:08;11.43;;;3.30;;
74630;SDS011;63138;55.082;38.804;2023-05-16T03:08:34;5.32;;;3.03;;
74630;SDS011;63138;55.082;38.804;2023-05-16T03:11:00;6.57;;;3.10;;
74630;SDS011;63138;55.082;38.804;2023-05-16T03:13:26;5.78;;;3.50;;
74630;SDS011;63138;55.082;38.804;2023-05-16T03:15:56;5.55;;;3.53;;
74630;SDS011;63138;55.082;38.804;2023-05-16T03:18:22;7.13;;;3.47;;
74630;SDS011;63138;55.082;38.804;2023-05-16T03:20:49;5.15;;;3.42;;
74630;SDS011;63138;55.082;38.804;2023-05-16T03:23:18;6.97;;;3.50;;
74630;SDS011;63138;55.082;38.804;2023-05-16T03:25:44;8.02;;;3.60;;
74630;SDS011;63138;55.082;38.804;2023-05-16T03:28:10;6.18;;;3.30;;
74630;SDS011;63138;55.082;38.804;2023-05-16T03:30:36;5.90;;;3.67;;
74630;SDS011;63138;55.082;38.804;2023-05-16T03:33:02;6.83;;;3.80;;
74630;SDS011;63138;55.082;38.804;2023-05-16T03:35:29;7.43;;;3.72;;
74630;SDS011;63138;55.082;38.804;2023-05-16T03:37:56;5.03;;;3.20;;
74630;SDS011;63138;55.082;38.804;2023-05-16T03:40:22;8.98;;;3.13;;
74630;SDS011;63138;55.082;38.804;2023-05-16T03:42:49;6.90;;;3.22;;
74630;SDS011;63138;55.082;38.804;2023-05-16T03:45:15;8.13;;;3.27;;
74630;SDS011;63138;55.082;38.804;2023-05-16T03:47:41;6.25;;;3.35;;
74630;SDS011;63138;55.082;38.804;2023-05-16T03:50:07;10.27;;;3.72;;
74630;SDS011;63138;55.082;38.804;2023-05-16T03:55:20;5.47;;;3.20;;
74630;SDS011;63138;55.082;38.804;2023-05-16T03:57:46;6.68;;;3.40;;
74630;SDS011;63138;55.082;38.804;2023-05-16T04:00:14;6.78;;;3.42;;
74630;SDS011;63138;55.082;38.804;2023-05-16T04:02:41;9.50;;;3.80;;
74630;SDS011;63138;55.082;38.804;2023-05-16T04:05:09;10.38;;;3.78;;
74630;SDS011;63138;55.082;38.804;2023-05-16T04:07:36;8.77;;;3.30;;
74630;SDS011;63138;55.082;38.804;2023-05-16T04:10:03;6.30;;;3.17;;
74630;SDS011;63138;55.082;38.804;2023-05-16T04:12:31;6.80;;;3.75;;
74630;SDS011;63138;55.082;38.804;2023-05-16T04:14:57;7.90;;;3.78;;
74630;SDS011;63138;55.082;38.804;2023-05-16T04:17:30;10.43;;;4.68;;
74630;SDS011;63138;55.082;38.804;2023-05-16T04:19:56;9.90;;;4.43;;
74630;SDS011;63138;55.082;38.804;2023-05-16T04:22:22;11.07;;;4.47;;
74630;SDS011;63138;55.082;38.804;2023-05-16T04:24:48;7.22;;;3.70;;
74630;SDS011;63138;55.082;38.804;2023-05-16T04:27:14;8.38;;;4.90;;
74630;SDS011;63138;55.082;38.804;2023-05-16T04:29:40;9.03;;;4.10;;
74630;SDS011;63138;55.082;38.804;2023-05-16T04:32:25;8.00;;;4.30;;
74630;SDS011;63138;55.082;38.804;2023-05-16T04:34:53;8.48;;;4.72;;
74630;SDS011;63138;55.082;38.804;2023-05-16T04:37:19;8.93;;;4.00;;
74630;SDS011;63138;55.082;38.804;2023-05-16T04:40:03;9.47;;;4.03;;
74630;SDS011;63138;55.082;38.804;2023-05-16T04:42:32;7.30;;;4.47;;
74630;SDS011;63138;55.082;38.804;2023-05-16T04:44:58;5.68;;;3.80;;
74630;SDS011;63138;55.082;38.804;2023-05-16T04:47:24;9.03;;;3.87;;
74630;SDS011;63138;55.082;38.804;2023-05-16T04:50:08;9.18;;;4.43;;
74630;SDS011;63138;55.082;38.804;2023-05-16T04:55:18;8.20;;;4.70;;
74630;SDS011;63138;55.082;38.804;2023-05-16T04:57:46;8.23;;;4.45;;
74630;SDS011;63138;55.082;38.804;2023-05-16T05:00:12;7.93;;;4.17;;
74630;SDS011;63138;55.082;38.804;2023-05-16T05:02:38;7.20;;;4.20;;
74630;SDS011;63138;55.082;38.804;2023-05-16T05:05:05;6.03;;;4.30;;
74630;SDS011;63138;55.082;38.804;2023-05-16T05:07:32;7.30;;;4.20;;
74630;SDS011;63138;55.082;38.804;2023-05-16T05:09:58;5.27;;;4.07;;
74630;SDS011;63138;55.082;38.804;2023-05-16T05:12:24;6.45;;;4.93;;
74630;SDS011;63138;55.082;38.804;2023-05-16T05:14:52;11.00;;;4.55;;
74630;SDS011;63138;55.082;38.804;2023-05-16T05:17:18;10.60;;;5.18;;
74630;SDS011;63138;55.082;38.804;2023-05-16T05:19:45;7.53;;;4.00;;
74630;SDS011;63138;55.082;38.804;2023-05-16T05:22:12;5.93;;;4.20;;
74630;SDS011;63138;55.082;38.804;2023-05-16T05:24:39;5.53;;;3.70;;
74630;SDS011;63138;55.082;38.804;2023-05-16T05:27:05;7.53;;;3.63;;
74630;SDS011;63138;55.082;38.804;2023-05-16T05:29:32;4.10;;;3.70;;
74630;SDS011;63138;55.082;38.804;2023-05-16T05:31:58;3.70;;;3.30;;
74630;SDS011;63138;55.082;38.804;2023-05-16T05:34:24;4.80;;;3.80;;
74630;SDS011;63138;55.082;38.804;2023-05-16T05:36:50;5.03;;;3.78;;
74630;SDS011;63138;55.082;38.804;2023-05-16T05:39:16;3.90;;;3.45;;
74630;SDS011;63138;55.082;38.804;2023-05-16T05:41:42;4.13;;;3.28;;
74630;SDS011;63138;55.082;38.804;2023-05-16T05:44:08;5.93;;;4.07;;
74630;SDS011;63138;55.082;38.804;2023-05-16T05:46:34;5.47;;;3.50;;
74630;SDS011;63138;55.082;38.804;2023-05-16T05:49:01;4.45;;;3.30;;
74630;SDS011;63138;55.082;38.804;2023-05-16T05:51:27;5.05;;;3.85;;
74630;SDS011;63138;55.082;38.804;2023-05-16T05:53:53;7.68;;;3.85;;
74630;SDS011;63138;55.082;38.804;2023-05-16T05:56:20;6.63;;;3.60;;
74630;SDS011;63138;55.082;38.804;2023-05-16T05:58:46;5.07;;;3.20;;
74630;SDS011;63138;55.082;38.804;2023-05-16T06:01:12;5.43;;;3.30;;
74630;SDS011;63138;55.082;38.804;2023-05-16T06:03:38;4.60;;;3.47;;
74630;SDS011;63138;55.082;38.804;2023-05-16T06:06:04;4.85;;;3.05;;
74630;SDS011;63138;55.082;38.804;2023-05-16T06:08:30;3.58;;;3.28;;
74630;SDS011;63138;55.082;38.804;2023-05-16T06:10:57;7.88;;;3.90;;
74630;SDS011;63138;55.082;38.804;2023-05-16T06:13:23;3.83;;;3.40;;
74630;SDS011;63138;55.082;38.804;2023-05-16T06:15:52;4.63;;;3.42;;
74630;SDS011;63138;55.082;38.804;2023-05-16T06:18:19;4.15;;;3.53;;
74630;SDS011;63138;55.082;38.804;2023-05-16T06:20:45;5.10;;;3.30;;
74630;SDS011;63138;55.082;38.804;2023-05-16T06:23:11;4.30;;;3.40;;
74630;SDS011;63138;55.082;38.804;2023-05-16T06:25:38;5.00;;;3.33;;
74630;SDS011;63138;55.082;38.804;2023-05-16T06:28:04;5.78;;;3.45;;
74630;SDS011;63138;55.082;38.804;2023-05-16T06:30:30;7.65;;;3.25;;
74630;SDS011;63138;55.082;38.804;2023-05-16T06:32:56;3.73;;;2.80;;
74630;SDS011;63138;55.082;38.804;2023-05-16T06:35:22;3.50;;;3.03;;
74630;SDS011;63138;55.082;38.804;2023-05-16T06:37:48;3.53;;;3.20;;
74630;SDS011;63138;55.082;38.804;2023-05-16T06:40:38;5.32;;;3.65;;
74630;SDS011;63138;55.082;38.804;2023-05-16T06:43:23;3.90;;;3.37;;
74630;SDS011;63138;55.082;38.804;2023-05-16T06:45:49;4.88;;;3.30;;
74630;SDS011;63138;55.082;38.804;2023-05-16T06:48:16;5.32;;;3.58;;
74630;SDS011;63138;55.082;38.804;2023-05-16T06:50:46;5.55;;;3.17;;
74630;SDS011;63138;55.082;38.804;2023-05-16T06:53:13;4.40;;;3.60;;
74630;SDS011;63138;55.082;38.804;2023-05-16T06:56:04;5.90;;;3.60;;
74630;SDS011;63138;55.082;38.804;2023-05-16T06:58:30;12.13;;;6.53;;
74630;SDS011;63138;55.082;38.804;2023-05-16T07:00:56;7.15;;;4.68;;
74630;SDS011;63138;55.082;38.804;2023-05-16T07:03:22;4.45;;;3.78;;
74630;SDS011;63138;55.082;38.804;2023-05-16T07:05:49;6.60;;;3.50;;
74630;SDS011;63138;55.082;38.804;2023-05-16T07:08:17;3.50;;;3.20;;
74630;SDS011;63138;55.082;38.804;2023-05-16T07:10:43;5.30;;;3.20;;
74630;SDS011;63138;55.082;38.804;2023-05-16T07:13:09;6.43;;;3.78;;
74630;SDS011;63138;55.082;38.804;2023-05-16T07:15:35;9.87;;;3.90;;
74630;SDS011;63138;55.082;38.804;2023-05-16T07:18:01;4.32;;;3.50;;
74630;SDS011;63138;55.082;38.804;2023-05-16T07:20:27;5.55;;;3.45;;
74630;SDS011;63138;55.082;38.804;2023-05-16T07:22:53;5.45;;;3.15;;
74630;SDS011;63138;55.082;38.804;2023-05-16T07:25:22;4.30;;;3.50;;
74630;SDS011;63138;55.082;38.804;2023-05-16T07:27:49;3.78;;;3.40;;
74630;SDS011;63138;55.082;38.804;2023-05-16T07:30:15;3.20;;;2.90;;
74630;SDS011;63138;55.082;38.804;2023-05-16T07:32:41;5.00;;;3.70;;
74630;SDS011;63138;55.082;38.804;2023-05-16T07:35:08;4.43;;;3.80;;
74630;SDS011;63138;55.082;38.804;2023-05-16T07:37:35;4.23;;;3.20;;
74630;SDS011;63138;55.082;38.804;2023-05-16T07:40:02;4.93;;;3.50;;
74630;SDS011;63138;55.082;38.804;2023-05-16T07:42:30;4.55;;;3.40;;
74630;SDS011;63138;55.082;38.804;2023-05-16T07:44:56;5.00;;;3.30;;
74630;SDS011;63138;55.082;38.804;2023-05-16T07:47:22;3.40;;;3.10;;
74630;SDS011;63138;55.082;38.804;2023-05-16T07:49:48;6.13;;;3.72;;
74630;SDS011;63138;55.082;38.804;2023-05-16T07:52:14;8.13;;;3.50;;
74630;SDS011;63138;55.082;38.804;2023-05-16T07:54:40;8.47;;;3.90;;
74630;SDS011;63138;55.082;38.804;2023-05-16T07:57:06;4.00;;;3.50;;
74630;SDS011;63138;55.082;38.804;2023-05-16T07:59:31;3.42;;;3.13;;
74630;SDS011;63138;55.082;38.804;2023-05-16T08:01:57;4.87;;;3.17;;
74630;SDS011;63138;55.082;38.804;2023-05-16T08:04:23;3.88;;;3.28;;
74630;SDS011;63138;55.082;38.804;2023-05-16T08:06:50;6.88;;;3.85;;
74630;SDS011;63138;55.082;38.804;2023-05-16T08:09:16;3.70;;;3.30;;
74630;SDS011;63138;55.082;38.804;2023-05-16T08:11:42;3.83;;;3.50;;
74630;SDS011;63138;55.082;38.804;2023-05-16T08:14:10;3.73;;;3.40;;
74630;SDS011;63138;55.082;38.804;2023-05-16T08:16:36;5.03;;;3.53;;
74630;SDS011;63138;55.082;38.804;2023-05-16T08:21:32;6.70;;;4.20;;
74630;SDS011;63138;55.082;38.804;2023-05-16T08:23:58;4.93;;;3.50;;
74630;SDS011;63138;55.082;38.804;2023-05-16T08:26:24;4.17;;;3.30;;
74630;SDS011;63138;55.082;38.804;2023-05-16T08:28:51;3.53;;;2.97;;
74630;SDS011;63138;55.082;38.804;2023-05-16T08:31:18;4.65;;;3.05;;
74630;SDS011;63138;55.082;38.804;2023-05-16T08:33:45;4.57;;;3.50;;
74630;SDS011;63138;55.082;38.804;2023-05-16T08:36:11;4.17;;;3.57;;
74630;SDS011;63138;55.082;38.804;2023-05-16T08:38:36;5.75;;;3.80;;
74630;SDS011;63138;55.082;38.804;2023-05-16T08:41:02;3.80;;;3.40;;
74630;SDS011;63138;55.082;38.804;2023-05-16T08:43:28;2.90;;;2.50;;
74630;SDS011;63138;55.082;38.804;2023-05-16T08:45:58;3.20;;;2.20;;
74630;SDS011;63138;55.082;38.804;2023-05-16T08:48:24;4.55;;;3.40;;
74630;SDS011;63138;55.082;38.804;2023-05-16T08:50:52;3.53;;;2.47;;
74630;SDS011;63138;55.082;38.804;2023-05-16T08:53:20;4.03;;;3.70;;
74630;SDS011;63138;55.082;38.804;2023-05-16T08:55:47;4.30;;;2.70;;
74630;SDS011;63138;55.082;38.804;2023-05-16T08:58:15;4.15;;;3.75;;
74630;SDS011;63138;55.082;38.804;2023-05-16T09:00:42;4.95;;;3.80;;
74630;SDS011;63138;55.082;38.804;2023-05-16T09:03:08;6.88;;;3.85;;
74630;SDS011;63138;55.082;38.804;2023-05-16T09:05:35;5.38;;;3.90;;
74630;SDS011;63138;55.082;38.804;2023-05-16T09:08:02;3.77;;;3.43;;
74630;SDS011;63138;55.082;38.804;2023-05-16T09:10:28;3.00;;;2.70;;
74630;SDS011;63138;55.082;38.804;2023-05-16T09:12:55;3.90;;;3.50;;
74630;SDS011;63138;55.082;38.804;2023-05-16T09:15:20;4.75;;;3.60;;
74630;SDS011;63138;55.082;38.804;2023-05-16T09:17:47;4.30;;;3.90;;
74630;SDS011;63138;55.082;38.804;2023-05-16T09:20:19;4.10;;;3.70;;
74630;SDS011;63138;55.082;38.804;2023-05-16T09:22:56;4.32;;;3.67;;
74630;SDS011;63138;55.082;38.804;2023-05-16T09:25:25;7.25;;;3.00;;
74630;SDS011;63138;55.082;38.804;2023-05-16T09:27:53;4.00;;;3.60;;
74630;SDS011;63138;55.082;38.804;2023-05-16T09:30:23;4.90;;;3.17;;
74630;SDS011;63138;55.082;38.804;2023-05-16T09:32:55;5.33;;;2.57;;
74630;SDS011;63138;55.082;38.804;2023-05-16T09:35:21;4.15;;;1.85;;
74630;SDS011;63138;55.082;38.804;2023-05-16T09:38:16;3.15;;;1.83;;
74630;SDS011;63138;55.082;38.804;2023-05-16T09:40:43;4.57;;;3.22;;
74630;SDS011;63138;55.082;38.804;2023-05-16T09:43:10;2.63;;;2.00;;
74630;SDS011;63138;55.082;38.804;2023-05-16T09:45:38;6.63;;;2.10;;
74630;SDS011;63138;55.082;38.804;2023-05-16T09:48:10;3.92;;;1.88;;
74630;SDS011;63138;55.082;38.804;2023-05-16T09:50:39;2.72;;;2.35;;
74630;SDS011;63138;55.082;38.804;2023-05-16T09:53:29;3.40;;;2.85;;
74630;SDS011;63138;55.082;38.804;2023-05-16T09:56:07;3.92;;;3.35;;
74630;SDS011;63138;55.082;38.804;2023-05-16T09:58:39;3.30;;;3.00;;
74630;SDS011;63138;55.082;38.804;2023-05-16T10:01:07;3.15;;;2.85;;
74630;SDS011;63138;55.082;38.804;2023-05-16T10:03:35;3.20;;;2.60;;
74630;SDS011;63138;55.082;38.804;2023-05-16T10:06:03;4.00;;;2.40;;
74630;SDS011;63138;55.082;38.804;2023-05-16T10:08:30;3.00;;;2.70;;
74630;SDS011;63138;55.082;38.804;2023-05-16T10:11:17;3.33;;;2.77;;
74630;SDS011;63138;55.082;38.804;2023-05-16T10:13:44;3.03;;;1.70;;
74630;SDS011;63138;55.082;38.804;2023-05-16T10:16:18;4.38;;;1.80;;
74630;SDS011;63138;55.082;38.804;2023-05-16T10:19:04;9.00;;;2.90;;
74630;SDS011;63138;55.082;38.804;2023-05-16T10:21:30;3.80;;;2.63;;
74630;SDS011;63138;55.082;38.804;2023-05-16T10:24:16;3.20;;;2.80;;
74630;SDS011;63138;55.082;38.804;2023-05-16T10:27:20;4.45;;;2.17;;
74630;SDS011;63138;55.082;38.804;2023-05-16T10:30:06;4.13;;;2.13;;
74630;SDS011;63138;55.082;38.804;2023-05-16T10:32:36;4.30;;;2.45;;
74630;SDS011;63138;55.082;38.804;2023-05-16T10:35:03;5.43;;;2.40;;
74630;SDS011;63138;55.082;38.804;2023-05-16T10:37:31;3.73;;;2.60;;
74630;SDS011;63138;55.082;38.804;2023-05-16T10:42:58;3.67;;;2.50;;
74630;SDS011;63138;55.082;38.804;2023-05-16T10:45:27;4.93;;;2.40;;
74630;SDS011;63138;55.082;38.804;2023-05-16T10:48:32;4.40;;;2.72;;
74630;SDS011;63138;55.082;38.804;2023-05-16T10:51:00;4.30;;;2.33;;
74630;SDS011;63138;55.082;38.804;2023-05-16T10:53:29;5.30;;;2.30;;
74630;SDS011;63138;55.082;38.804;2023-05-16T11:06:29;4.18;;;1.90;;
74630;SDS011;63138;55.082;38.804;2023-05-16T11:14:27;4.00;;;2.20;;
74630;SDS011;63138;55.082;38.804;2023-05-16T11:19:56;3.17;;;1.95;;
74630;SDS011;63138;55.082;38.804;2023-05-16T11:22:27;4.65;;;2.70;;
74630;SDS011;63138;55.082;38.804;2023-05-16T11:27:44;3.63;;;2.25;;
74630;SDS011;63138;55.082;38.804;2023-05-16T11:30:12;3.40;;;2.80;;
74630;SDS011;63138;55.082;38.804;2023-05-16T11:32:46;3.80;;;2.60;;
74630;SDS011;63138;55.082;38.804;2023-05-16T11:35:13;4.00;;;2.60;;
74630;SDS011;63138;55.082;38.804;2023-05-16T11:37:41;3.00;;;2.40;;
74630;SDS011;63138;55.082;38.804;2023-05-16T11:40:09;3.38;;;2.40;;
74630;SDS011;63138;55.082;38.804;2023-05-16T11:42:40;6.17;;;2.77;;
74630;SDS011;63138;55.082;38.804;2023-05-16T11:45:11;3.50;;;2.70;;
74630;SDS011;63138;55.082;38.804;2023-05-16T11:47:41;4.25;;;2.70;;
74630;SDS011;63138;55.082;38.804;2023-05-16T11:50:12;4.10;;;2.30;;
74630;SDS011;63138;55.082;38.804;2023-05-16T11:52:42;3.65;;;2.30;;
74630;SDS011;63138;55.082;38.804;2023-05-16T11:55:09;3.23;;;2.23;;
74630;SDS011;63138;55.082;38.804;2023-05-16T11:57:37;5.05;;;1.85;;
74630;SDS011;63138;55.082;38.804;2023-05-16T12:00:25;3.15;;;2.38;;
74630;SDS011;63138;55.082;38.804;2023-05-16T12:02:52;3.25;;;1.90;;
74630;SDS011;63138;55.082;38.804;2023-05-16T12:05:54;4.35;;;2.40;;
74630;SDS011;63138;55.082;38.804;2023-05-16T12:08:23;2.90;;;2.37;;
74630;SDS011;63138;55.082;38.804;2023-05-16T12:10:50;3.40;;;2.22;;
74630;SDS011;63138;55.082;38.804;2023-05-16T12:13:17;3.15;;;2.80;;
74630;SDS011;63138;55.082;38.804;2023-05-16T12:15:48;4.40;;;2.40;;
74630;SDS011;63138;55.082;38.804;2023-05-16T12:18:15;3.10;;;2.10;;
74630;SDS011;63138;55.082;38.804;2023-05-16T12:20:42;5.03;;;2.40;;
74630;SDS011;63138;55.082;38.804;2023-05-16T12:23:27;4.00;;;2.67;;
74630;SDS011;63138;55.082;38.804;2023-05-16T12:25:55;4.30;;;2.53;;
74630;SDS011;63138;55.082;38.804;2023-05-16T12:28:22;2.95;;;2.20;;
74630;SDS011;63138;55.082;38.804;2023-05-16T12:30:47;3.80;;;2.13;;
74630;SDS011;63138;55.082;38.804;2023-05-16T12:33:14;4.55;;;2.20;;
74630;SDS011;63138;55.082;38.804;2023-05-16T12:35:42;6.75;;;2.35;;
74630;SDS011;63138;55.082;38.804;2023-05-16T12:38:10;4.05;;;1.92;;
74630;SDS011;63138;55.082;38.804;2023-05-16T12:40:38;4.57;;;2.25;;
74630;SDS011;63138;55.082;38.804;2023-05-16T12:43:33;3.00;;;1.73;;
74630;SDS011;63138;55.082;38.804;2023-05-16T12:45:59;3.70;;;1.65;;
74630;SDS011;63138;55.082;38.804;2023-05-16T12:48:31;3.45;;;2.40;;
74630;SDS011;63138;55.082;38.804;2023-05-16T12:51:11;3.80;;;2.35;;
74630;SDS011;63138;55.082;38.804;2023-05-16T12:53:42;3.55;;;2.33;;
74630;SDS011;63138;55.082;38.804;2023-05-16T12:56:12;3.30;;;2.50;;
74630;SDS011;63138;55.082;38.804;2023-05-16T12:58:40;3.22;;;2.42;;
74630;SDS011;63138;55.082;38.804;2023-05-16T13:01:07;5.00;;;2.60;;
74630;SDS011;63138;55.082;38.804;2023-05-16T13:03:34;3.75;;;2.67;;
74630;SDS011;63138;55.082;38.804;2023-05-16T13:06:01;3.80;;;2.67;;
74630;SDS011;63138;55.082;38.804;2023-05-16T13:08:28;5.60;;;2.40;;
74630;SDS011;63138;55.082;38.804;2023-05-16T13:10:54;3.67;;;2.58;;
74630;SDS011;63138;55.082;38.804;2023-05-16T13:13:21;4.95;;;2.42;;
74630;SDS011;63138;55.082;38.804;2023-05-16T13:15:47;4.75;;;2.67;;
74630;SDS011;63138;55.082;38.804;2023-05-16T13:18:13;5.37;;;2.70;;
74630;SDS011;63138;55.082;38.804;2023-05-16T13:20:57;3.38;;;2.60;;
74630;SDS011;63138;55.082;38.804;2023-05-16T13:23:23;4.32;;;2.70;;
74630;SDS011;63138;55.082;38.804;2023-05-16T13:25:49;7.60;;;2.77;;
74630;SDS011;63138;55.082;38.804;2023-05-16T13:28:17;3.35;;;2.13;;
74630;SDS011;63138;55.082;38.804;2023-05-16T13:30:43;3.83;;;2.10;;
74630;SDS011;63138;55.082;38.804;2023-05-16T13:33:09;3.22;;;2.40;;
74630;SDS011;63138;55.082;38.804;2023-05-16T13:35:35;4.60;;;2.23;;
74630;SDS011;63138;55.082;38.804;2023-05-16T13:38:01;5.75;;;2.80;;
74630;SDS011;63138;55.082;38.804;2023-05-16T13:40:28;4.18;;;2.78;;
74630;SDS011;63138;55.082;38.804;2023-05-16T13:42:55;4.95;;;2.47;;
74630;SDS011;63138;55.082;38.804;2023-05-16T13:45:21;3.73;;;2.37;;
74630;SDS011;63138;55.082;38.804;2023-05-16T13:47:47;4.93;;;2.72;;
74630;SDS011;63138;55.082;38.804;2023-05-16T13:50:13;4.93;;;2.25;;
74630;SDS011;63138;55.082;38.804;2023-05-16T13:52:39;3.70;;;2.22;;
74630;SDS011;63138;55.082;38.804;2023-05-16T13:55:05;4.30;;;2.90;;
74630;SDS011;63138;55.082;38.804;2023-05-16T13:57:32;4.97;;;2.40;;
74630;SDS011;63138;55.082;38.804;2023-05-16T13:59:59;4.93;;;2.53;;
74630;SDS011;63138;55.082;38.804;2023-05-16T14:02:25;3.30;;;2.20;;
74630;SDS011;63138;55.082;38.804;2023-05-16T14:04:51;3.53;;;2.40;;
74630;SDS011;63138;55.082;38.804;2023-05-16T14:07:17;3.53;;;2.23;;
74630;SDS011;63138;55.082;38.804;2023-05-16T14:09:43;3.10;;;2.17;;
74630;SDS011;63138;55.082;38.804;2023-05-16T14:12:09;5.32;;;2.40;;
74630;SDS011;63138;55.082;38.804;2023-05-16T14:14:37;3.90;;;2.33;;
74630;SDS011;63138;55.082;38.804;2023-05-16T14:17:03;5.97;;;2.37;;
74630;SDS011;63138;55.082;38.804;2023-05-16T14:19:29;3.90;;;2.40;;
74630;SDS011;63138;55.082;38.804;2023-05-16T14:21:55;4.88;;;2.30;;
74630;SDS011;63138;55.082;38.804;2023-05-16T14:24:21;3.45;;;2.10;;
74630;SDS011;63138;55.082;38.804;2023-05-16T14:26:47;3.67;;;2.70;;
74630;SDS011;63138;55.082;38.804;2023-05-16T14:29:13;3.50;;;2.30;;
74630;SDS011;63138;55.082;38.804;2023-05-16T14:31:39;5.57;;;2.50;;
74630;SDS011;63138;55.082;38.804;2023-05-16T14:34:05;3.45;;;2.38;;
74630;SDS011;63138;55.082;38.804;2023-05-16T14:36:31;4.50;;;2.30;;
74630;SDS011;63138;55.082;38.804;2023-05-16T14:38:57;3.83;;;2.20;;
74630;SDS011;63138;55.082;38.804;2023-05-16T14:41:23;4.50;;;2.50;;
74630;SDS011;63138;55.082;38.804;2023-05-16T14:43:49;3.65;;;2.45;;
74630;SDS011;63138;55.082;38.804;2023-05-16T14:46:15;3.95;;;2.70;;
74630;SDS011;63138;55.082;38.804;2023-05-16T14:48:41;5.23;;;2.23;;
74630;SDS011;63138;55.082;38.804;2023-05-16T14:51:07;5.22;;;2.53;;
74630;SDS011;63138;55.082;38.804;2023-05-16T14:53:33;5.57;;;2.40;;
74630;SDS011;63138;55.082;38.804;2023-05-16T14:55:59;6.13;;;2.40;;
74630;SDS011;63138;55.082;38.804;2023-05-16T14:58:27;3.20;;;2.40;;
74630;SDS011;63138;55.082;38.804;2023-05-16T15:00:53;4.68;;;2.58;;
74630;SDS011;63138;55.082;38.804;2023-05-16T15:03:19;4.40;;;2.38;;
74630;SDS011;63138;55.082;38.804;2023-05-16T15:05:45;4.80;;;2.60;;
74630;SDS011;63138;55.082;38.804;2023-05-16T15:08:11;6.13;;;2.60;;
74630;SDS011;63138;55.082;38.804;2023-05-16T15:10:37;6.60;;;2.90;;
74630;SDS011;63138;55.082;38.804;2023-05-16T15:13:04;4.47;;;2.53;;
74630;SDS011;63138;55.082;38.804;2023-05-16T15:15:30;4.97;;;2.73;;
74630;SDS011;63138;55.082;38.804;2023-05-16T15:18:02;5.63;;;2.78;;
74630;SDS011;63138;55.082;38.804;2023-05-16T15:20:28;4.38;;;2.92;;
74630;SDS011;63138;55.082;38.804;2023-05-16T15:22:54;4.50;;;2.80;;
74630;SDS011;63138;55.082;38.804;2023-05-16T15:25:20;8.13;;;3.33;;
74630;SDS011;63138;55.082;38.804;2023-05-16T15:27:46;8.70;;;4.20;;
74630;SDS011;63138;55.082;38.804;2023-05-16T15:30:12;6.45;;;3.80;;